Time;durP1;ratioP1;P1;durP2;ratioP2;P2;SDS_P1;SDS_P2;PMS_P1;PMS_P2;Temp;Humidity;BMP_temperature;BMP_pressure;BME280_temperature;BME280_humidity;BME280_pressure;Samples;Min_cycle;Max_cycle;Signal;HPM_P1;HPM_P2
2022/06/23 00:01:12;;;;;;;19.33;8.05;;;;;;;17.80;79.54;101213.00;5051460;28;20089;-33
2022/06/23 00:03:38;;;;;;;13.98;7.53;;;;;;;17.81;79.38;101209.25;5050797;28;20029;-37
2022/06/23 00:06:07;;;;;;;18.58;7.90;;;;;;;17.74;79.45;101222.84;5031865;28;20033;-34
2022/06/23 00:08:43;;;;;;;17.45;7.88;;;;;;;17.71;79.40;101215.13;5050904;28;20037;-35
2022/06/23 00:11:22;;;;;;;15.20;7.80;;;;;;;17.65;79.53;101214.13;5052848;28;20033;-34
2022/06/23 00:13:48;;;;;;;23.92;8.63;;;;;;;17.60;79.60;101219.41;5051828;28;20453;-35
2022/06/23 00:16:26;;;;;;;19.75;8.20;;;;;;;17.55;79.62;101216.50;5052044;28;20021;-36
2022/06/23 00:18:51;;;;;;;17.58;8.38;;;;;;;17.53;79.49;101210.44;5045211;28;20087;-33
2022/06/23 00:21:28;;;;;;;13.88;7.68;;;;;;;17.49;79.38;101198.31;5050993;28;20053;-34
2022/06/23 00:23:59;;;;;;;13.73;7.88;;;;;;;17.44;79.14;101207.13;5050396;28;20048;-37
2022/06/23 00:26:26;;;;;;;15.55;7.72;;;;;;;17.40;78.89;101199.63;5051557;28;20030;-39
2022/06/23 00:28:58;;;;;;;18.63;7.75;;;;;;;17.36;79.08;101191.06;5047331;28;20044;-35
2022/06/23 00:31:47;;;;;;;15.98;7.53;;;;;;;17.31;79.10;101193.63;5050603;28;20275;-34
2022/06/23 00:34:19;;;;;;;11.80;7.07;;;;;;;17.32;78.87;101200.72;5047350;28;20045;-35
2022/06/23 00:37:12;;;;;;;16.23;7.47;;;;;;;17.24;79.13;101195.53;5049003;28;20072;-35
2022/06/23 00:39:47;;;;;;;18.77;6.93;;;;;;;17.17;79.30;101190.13;5051188;28;20061;-37
2022/06/23 00:42:18;;;;;;;15.88;7.18;;;;;;;17.18;79.08;101189.06;5049368;28;20043;-32
2022/06/23 00:44:49;;;;;;;14.95;7.43;;;;;;;17.16;79.21;101188.47;5049412;28;20037;-35
2022/06/23 00:47:47;;;;;;;12.45;7.05;;;;;;;17.14;79.13;101187.88;5050217;28;20158;-34
2022/06/23 00:50:15;;;;;;;18.67;7.65;;;;;;;17.08;79.31;101188.72;5049983;28;20446;-37
2022/06/23 00:52:45;;;;;;;12.93;7.25;;;;;;;17.07;79.19;101192.50;5050149;28;20051;-35
2022/06/23 00:55:19;;;;;;;12.65;7.47;;;;;;;17.05;79.31;101194.59;5049703;28;20041;-37
2022/06/23 00:57:50;;;;;;;10.85;6.72;;;;;;;17.00;79.63;101186.25;5039467;28;20057;-39
2022/06/23 01:00:34;;;;;;;17.00;7.70;;;;;;;17.00;79.60;101184.34;5049842;28;20036;-35
2022/06/23 01:03:14;;;;;;;15.07;7.38;;;;;;;16.94;79.63;101190.66;5050170;28;20072;-34
2022/06/23 01:05:54;;;;;;;15.63;6.93;;;;;;;16.92;80.03;101192.75;5049454;28;20040;-37
2022/06/23 01:08:28;;;;;;;16.25;7.75;;;;;;;16.85;80.00;101179.19;5032309;28;20034;-34
2022/06/23 01:11:18;;;;;;;14.30;8.05;;;;;;;16.81;80.19;101183.38;5032803;28;20476;-36
2022/06/23 01:13:48;;;;;;;14.48;7.75;;;;;;;16.78;80.40;101175.66;5031119;28;20068;-35
2022/06/23 01:16:18;;;;;;;14.77;7.30;;;;;;;16.78;80.32;101172.94;5049206;28;20072;-39
2022/06/23 01:19:06;;;;;;;18.35;8.18;;;;;;;16.80;80.34;101186.34;5060305;28;20026;-36
2022/06/23 01:21:37;;;;;;;17.13;8.15;;;;;;;16.69;80.60;101182.34;5049253;28;20043;-36
2022/06/23 01:25:03;;;;;;;16.75;7.95;;;;;;;16.64;81.02;101183.00;5065081;28;20108;-36
2022/06/23 01:28:08;;;;;;;14.48;7.78;;;;;;;16.60;81.19;101183.63;5038827;28;20026;-35
2022/06/23 01:30:38;;;;;;;14.23;7.28;;;;;;;16.56;81.50;101187.81;5028111;28;20111;-32
2022/06/23 01:33:21;;;;;;;15.73;7.90;;;;;;;16.51;81.69;101190.34;5027886;28;20057;-35
2022/06/23 01:35:56;;;;;;;16.50;7.60;;;;;;;16.48;81.90;101188.88;5041373;28;20045;-36
2022/06/23 01:38:40;;;;;;;13.82;8.02;;;;;;;16.51;82.01;101190.34;5049533;28;20033;-35
2022/06/23 01:41:16;;;;;;;16.00;7.22;;;;;;;16.52;81.89;101190.13;5050031;28;20075;-36
2022/06/23 01:44:06;;;;;;;18.65;8.23;;;;;;;16.50;81.92;101191.41;5048964;28;20059;-33
2022/06/23 01:46:38;;;;;;;15.40;7.38;;;;;;;16.46;82.04;101186.38;5043354;28;20061;-35
2022/06/23 01:49:13;;;;;;;19.77;8.52;;;;;;;16.44;82.24;101183.03;5049138;28;20029;-36
2022/06/23 01:52:12;;;;;;;15.70;7.93;;;;;;;16.42;82.34;101187.84;5049743;28;20471;-34
2022/06/23 01:54:39;;;;;;;16.73;8.23;;;;;;;16.41;82.50;101185.38;5049133;28;20045;-38
2022/06/23 01:57:33;;;;;;;17.00;7.43;;;;;;;16.35;82.55;101178.91;5047770;28;20021;-39
2022/06/23 02:00:21;;;;;;;14.13;7.90;;;;;;;16.37;82.65;101178.66;5045503;28;20037;-35
2022/06/23 02:02:58;;;;;;;15.50;7.90;;;;;;;16.35;82.70;101172.59;5064039;28;20046;-36
2022/06/23 02:05:37;;;;;;;15.02;7.95;;;;;;;16.31;82.83;101165.94;5048386;28;20048;-35
2022/06/23 02:08:12;;;;;;;13.93;8.32;;;;;;;16.32;82.97;101170.31;5047098;28;20033;-35
2022/06/23 02:10:52;;;;;;;16.88;8.02;;;;;;;16.32;82.91;101163.00;5047625;28;20033;-35
2022/06/23 02:13:33;;;;;;;15.18;7.88;;;;;;;16.33;82.76;101167.41;5048374;28;20087;-35
2022/06/23 02:16:15;;;;;;;12.60;8.07;;;;;;;16.31;82.92;101166.78;5048457;28;20052;-33
2022/06/23 02:19:11;;;;;;;16.48;8.57;;;;;;;16.29;82.97;101154.44;5047973;28;20113;-36
2022/06/23 02:21:43;;;;;;;16.65;8.10;;;;;;;16.26;82.83;101158.44;5048194;28;20083;-36
2022/06/23 02:24:12;;;;;;;17.23;8.77;;;;;;;16.21;83.18;101155.50;5048087;28;20540;-34
2022/06/23 02:26:52;;;;;;;14.18;7.40;;;;;;;16.15;83.38;101162.63;5047154;28;20029;-32
2022/06/23 02:29:23;;;;;;;12.48;7.80;;;;;;;16.14;83.65;101160.97;5049224;28;20034;-34
2022/06/23 02:32:32;;;;;;;16.48;8.15;;;;;;;16.09;83.70;101173.47;5048792;28;20468;-34
2022/06/23 02:35:07;;;;;;;15.02;8.00;;;;;;;16.09;83.81;101173.47;5067999;23;20034;-75
2022/06/23 02:37:48;;;;;;;15.45;8.13;;;;;;;16.05;83.74;101170.34;5037666;28;20068;-74
2022/06/23 02:40:21;;;;;;;17.92;8.68;;;;;;;16.07;83.93;101167.44;5037667;28;20064;-74
2022/06/23 02:42:52;;;;;;;18.50;8.45;;;;;;;16.04;84.08;101173.31;5035879;28;20026;-73
2022/06/23 02:45:36;;;;;;;15.13;8.57;;;;;;;16.02;84.12;101168.91;5036574;28;20034;-74
2022/06/23 02:48:22;;;;;;;13.88;8.90;;;;;;;15.99;84.27;101152.22;5017108;28;20018;-74
2022/06/23 02:50:54;;;;;;;16.45;8.55;;;;;;;15.95;84.48;101146.34;5036167;28;20022;-74
2022/06/23 02:53:30;;;;;;;15.23;8.40;;;;;;;15.89;84.53;101149.91;5035757;28;20017;-74
2022/06/23 02:56:09;;;;;;;17.60;9.15;;;;;;;15.87;84.81;101143.00;5035686;28;20028;-74
2022/06/23 02:58:42;;;;;;;17.95;9.05;;;;;;;15.83;84.93;101136.34;5035934;28;20042;-74
2022/06/23 03:01:17;;;;;;;16.48;8.82;;;;;;;15.85;85.03;101137.81;5036430;28;20022;-74
2022/06/23 03:03:49;;;;;;;15.60;9.02;;;;;;;15.83;85.05;101131.75;5035305;28;20042;-74
2022/06/23 03:06:22;;;;;;;18.80;9.00;;;;;;;15.77;85.18;101129.84;5035142;28;20025;-75
2022/06/23 03:09:07;;;;;;;16.45;9.45;;;;;;;15.79;85.29;101135.91;5035350;28;20032;-75
2022/06/23 03:11:52;;;;;;;15.75;9.38;;;;;;;15.79;85.13;101141.34;5036186;28;20021;-75
2022/06/23 03:14:39;;;;;;;13.88;9.73;;;;;;;15.77;85.32;101140.72;5035875;28;20033;-74
2022/06/23 03:17:05;;;;;;;16.23;9.10;;;;;;;15.72;85.37;101129.69;5036172;28;20033;-75
2022/06/23 03:19:41;;;;;;;22.58;9.52;;;;;;;15.71;85.59;101128.00;5035801;28;20026;-75
2022/06/23 03:22:24;;;;;;;17.23;10.57;;;;;;;15.70;85.32;101129.88;5035226;28;20258;-75
2022/06/23 03:25:16;;;;;;;17.30;9.30;;;;;;;15.69;85.50;101122.78;5035707;28;20022;-75
2022/06/23 03:27:57;;;;;;;19.70;10.40;;;;;;;15.68;85.55;101125.66;5027322;28;20038;-74
2022/06/23 03:31:21;;;;;;;24.45;10.10;;;;;;;15.67;85.49;101129.44;5031349;28;20030;-75
2022/06/23 03:33:56;;;;;;;19.67;9.73;;;;;;;15.65;85.82;101128.81;4927840;29;20164;-75
2022/06/23 03:37:02;;;;;;;13.70;9.57;;;;;;;15.65;85.63;101126.09;4937970;29;20042;-75
2022/06/23 03:42:29;;;;;;;22.10;9.93;;;;;;;15.64;85.57;101105.41;5035073;28;20158;-76
2022/06/23 03:45:20;;;;;;;20.17;9.70;;;;;;;15.65;85.47;101117.94;5034986;28;20029;-75
2022/06/23 03:48:07;;;;;;;20.40;9.30;;;;;;;15.65;85.69;101115.25;5035182;28;20094;-75
2022/06/23 03:50:54;;;;;;;18.70;9.73;;;;;;;15.63;85.67;101115.44;5035685;28;20026;-75
2022/06/23 03:53:25;;;;;;;17.77;9.85;;;;;;;15.61;85.44;101112.09;5034588;28;20034;-75
2022/06/23 03:55:57;;;;;;;28.20;10.30;;;;;;;15.68;85.40;101112.09;5035076;28;20025;-75
2022/06/23 03:58:29;;;;;;;21.70;9.52;;;;;;;15.74;84.83;101114.00;5034779;28;20061;-75
2022/06/23 04:01:00;;;;;;;25.25;10.73;;;;;;;15.75;84.58;101107.53;5035404;28;20041;-75
2022/06/23 04:03:31;;;;;;;20.85;9.48;;;;;;;15.79;84.48;101097.91;5035259;28;20041;-75
2022/06/23 04:05:56;;;;;;;15.85;9.30;;;;;;;15.82;84.09;101096.66;5035559;28;20033;-74
2022/06/23 04:08:33;;;;;;;20.92;9.15;;;;;;;15.83;84.03;101092.94;5034303;28;20018;-75
2022/06/23 04:11:43;;;;;;;15.38;9.40;;;;;;;15.83;83.85;101093.75;5033533;28;20036;-74
2022/06/23 04:13:50;;;;;;;18.75;8.95;;;;;;;15.87;83.74;101091.44;5023493;28;20036;-75
2022/06/23 04:16:16;;;;;;;20.23;9.40;;;;;;;15.89;83.48;101095.63;5034019;28;20045;-75
2022/06/23 04:18:45;;;;;;;22.15;9.85;;;;;;;15.90;83.11;101099.16;5037085;28;20017;-75
2022/06/23 04:21:18;;;;;;;19.70;10.02;;;;;;;15.95;83.29;101088.50;5036359;28;20032;-75
2022/06/23 04:23:49;;;;;;;16.65;9.57;;;;;;;16.03;82.62;101099.13;5036043;28;20147;-75
2022/06/23 04:26:33;;;;;;;16.90;9.35;;;;;;;16.09;82.11;101092.03;5036407;28;20093;-74
2022/06/23 04:29:22;;;;;;;24.05;9.57;;;;;;;16.11;82.05;101087.22;5036438;28;20026;-75
2022/06/23 04:31:59;;;;;;;24.92;10.07;;;;;;;16.14;81.80;101089.50;5027453;28;20097;-76
2022/06/23 04:34:28;;;;;;;15.32;9.57;;;;;;;16.18;81.59;101096.19;5036747;28;20101;-74
2022/06/23 04:36:54;;;;;;;16.48;9.57;;;;;;;16.24;81.48;101095.34;5036950;28;20085;-75
2022/06/23 04:39:37;;;;;;;20.55;9.45;;;;;;;16.30;81.07;101086.34;5038277;28;20073;-75
2022/06/23 04:42:23;;;;;;;17.90;9.00;;;;;;;16.34;80.75;101079.44;5037714;28;20048;-75
2022/06/23 04:44:50;;;;;;;18.58;8.90;;;;;;;16.39;80.31;101081.50;5037059;28;20033;-75
2022/06/23 04:47:19;;;;;;;17.42;8.95;;;;;;;16.41;80.21;101091.13;5032218;28;20042;-75
2022/06/23 04:49:57;;;;;;;21.35;9.23;;;;;;;16.47;79.96;101078.53;5050010;28;20026;-74
2022/06/23 04:52:41;;;;;;;18.35;9.10;;;;;;;16.50;79.35;101078.13;5038329;28;20037;-73
2022/06/23 04:55:18;;;;;;;16.08;9.55;;;;;;;16.54;79.55;101083.97;5037219;28;20025;-74
2022/06/23 04:57:49;;;;;;;15.40;8.48;;;;;;;16.60;79.64;101093.97;5037772;28;20034;-75
2022/06/23 05:00:20;;;;;;;16.02;8.65;;;;;;;16.69;79.13;101081.78;5037870;28;20018;-76
2022/06/23 05:02:54;;;;;;;13.75;9.73;;;;;;;16.74;78.90;101092.84;5036758;28;20048;-76
2022/06/23 05:05:31;;;;;;;20.15;9.70;;;;;;;16.76;78.37;101098.91;5037469;28;20040;-76
2022/06/23 05:08:05;;;;;;;24.83;9.50;;;;;;;16.72;78.63;101111.28;5037940;28;20041;-75
2022/06/23 05:10:34;;;;;;;17.42;8.52;;;;;;;16.79;79.14;101120.25;5039781;28;20021;-75
2022/06/23 05:13:09;;;;;;;18.52;9.25;;;;;;;16.84;78.81;101106.84;5058328;28;20027;-76
2022/06/23 05:15:44;;;;;;;15.70;9.43;;;;;;;16.80;78.22;101111.06;5057379;28;20018;-75
2022/06/23 05:18:22;;;;;;;12.57;8.77;;;;;;;16.89;78.48;101095.31;5057458;28;20051;-75
2022/06/23 05:20:48;;;;;;;;;;;;;;;16.94;78.41;101094.69;5045359;28;20041;-76
2022/06/23 05:23:21;;;;;;;17.67;9.60;;;;;;;17.03;78.13;101087.91;5037865;28;19957;-75
2022/06/23 05:25:49;;;;;;;19.83;9.27;;;;;;;17.10;77.79;101094.16;5037184;28;20021;-75
2022/06/23 05:28:21;;;;;;;17.13;8.95;;;;;;;17.11;77.33;101095.81;5037289;28;20033;-75
2022/06/23 05:31:02;;;;;;;20.65;9.68;;;;;;;17.21;77.72;101096.16;5035649;28;20025;-75
2022/06/23 05:33:34;;;;;;;18.20;9.02;;;;;;;17.30;77.04;101100.28;5036528;28;20022;-75
2022/06/23 05:36:06;;;;;;;18.42;8.85;;;;;;;17.30;77.07;101094.84;5036951;28;20034;-75
2022/06/23 05:38:40;;;;;;;14.38;8.55;;;;;;;17.38;77.07;101099.19;5036875;28;20018;-75
2022/06/23 05:41:26;;;;;;;18.88;9.02;;;;;;;17.49;76.24;101103.09;5036598;28;20041;-75
2022/06/23 05:43:54;;;;;;;14.38;8.55;;;;;;;17.57;75.85;101107.44;5037159;28;20022;-75
2022/06/23 05:46:23;;;;;;;19.63;9.50;;;;;;;17.62;75.55;101102.97;5036961;28;20026;-74
2022/06/23 05:48:56;;;;;;;17.35;8.95;;;;;;;17.73;74.54;101101.41;5036317;28;20056;-75
2022/06/23 05:51:47;;;;;;;16.30;8.40;;;;;;;17.83;73.98;101100.97;5036998;28;20095;-75
2022/06/23 05:54:30;;;;;;;17.90;8.48;;;;;;;18.06;73.12;101098.41;5033494;28;20069;-76
2022/06/23 05:57:12;;;;;;;11.73;7.70;;;;;;;18.18;72.97;101101.22;5036448;28;20026;-76
2022/06/23 05:59:51;;;;;;;19.35;8.50;;;;;;;18.40;72.78;101090.69;5036959;28;20018;-76
2022/06/23 06:02:23;;;;;;;16.88;8.15;;;;;;;18.61;69.31;101087.47;5035337;28;20036;-75
2022/06/23 06:04:52;;;;;;;17.98;7.85;;;;;;;18.65;68.74;101090.59;5037153;28;20025;-74
2022/06/23 06:07:20;;;;;;;13.35;7.63;;;;;;;18.68;68.69;101100.22;5036028;28;20041;-77
2022/06/23 06:09:46;;;;;;;14.40;7.50;;;;;;;18.69;68.58;101090.97;5036640;28;20086;-76
2022/06/23 06:12:16;;;;;;;13.48;6.75;;;;;;;18.82;68.33;101091.66;5018615;28;20034;-75
2022/06/23 06:14:54;;;;;;;10.20;6.80;;;;;;;18.96;68.35;101089.59;5036230;28;20032;-76
2022/06/23 06:17:23;;;;;;;14.77;7.32;;;;;;;19.07;65.83;101099.69;5035119;28;20068;-76
2022/06/23 06:19:49;;;;;;;16.55;7.50;;;;;;;19.19;66.62;101093.44;5035429;28;20081;-76
2022/06/23 06:22:28;;;;;;;17.13;7.75;;;;;;;19.43;66.92;101086.13;5035520;28;20022;-76
2022/06/23 06:24:55;;;;;;;13.73;7.85;;;;;;;19.59;64.82;101076.41;5035531;28;20080;-75
2022/06/23 06:27:21;;;;;;;16.77;7.30;;;;;;;19.61;64.41;101071.56;5035832;28;20021;-76
2022/06/23 06:29:48;;;;;;;9.25;6.50;;;;;;;19.68;63.70;101078.59;5035428;28;20014;-76
2022/06/23 06:32:27;;;;;;;21.95;7.00;;;;;;;19.90;64.35;101080.75;5036232;28;20088;-77
2022/06/23 06:35:08;;;;;;;13.82;6.90;;;;;;;20.04;62.33;101070.44;5036309;28;20042;-76
2022/06/23 06:37:42;;;;;;;15.05;6.88;;;;;;;20.08;62.31;101071.59;5035579;28;20089;-76
2022/06/23 06:40:08;;;;;;;17.85;7.55;;;;;;;20.18;62.65;101071.81;5035297;28;20025;-75
2022/06/23 06:42:37;;;;;;;14.45;6.50;;;;;;;20.28;62.66;101077.50;5035699;28;20029;-75
2022/06/23 06:45:06;;;;;;;13.63;6.70;;;;;;;20.38;61.52;101064.06;5018858;28;20041;-76
2022/06/23 06:47:36;;;;;;;11.55;6.95;;;;;;;20.41;61.12;101042.78;5034700;28;20029;-75
2022/06/23 06:50:22;;;;;;;13.07;7.43;;;;;;;20.48;60.79;101059.84;5035366;28;20026;-75
2022/06/23 06:52:48;;;;;;;13.02;7.28;;;;;;;20.51;60.73;101060.22;5035405;28;20051;-75
2022/06/23 06:55:38;;;;;;;11.18;6.90;;;;;;;20.54;60.81;101058.94;5035457;28;20069;-76
2022/06/23 06:58:15;;;;;;;11.68;7.15;;;;;;;20.70;61.37;101063.63;5034829;28;20081;-76
2022/06/23 07:01:03;;;;;;;13.70;7.30;;;;;;;21.12;60.15;101066.03;5035557;28;20037;-76
2022/06/23 07:03:29;;;;;;;9.65;6.65;;;;;;;21.48;58.58;101055.72;5035327;28;20041;-75
2022/06/23 07:06:06;;;;;;;12.40;7.03;;;;;;;22.18;56.87;101057.00;5035527;28;20045;-75
2022/06/23 07:08:37;;;;;;;13.65;7.40;;;;;;;22.97;54.16;101064.84;5035330;28;20014;-76
2022/06/23 07:11:02;;;;;;;12.85;6.90;;;;;;;23.78;51.92;101077.63;5036131;28;20021;-75
2022/06/23 07:13:27;;;;;;;14.13;6.88;;;;;;;23.97;50.92;101077.22;5036262;28;20021;-75
2022/06/23 07:16:12;;;;;;;12.02;6.35;;;;;;;24.05;51.31;101073.94;5035817;28;20038;-76
2022/06/23 07:18:43;;;;;;;14.75;6.88;;;;;;;25.13;48.33;101087.00;5034913;28;20041;-75
2022/06/23 07:21:21;;;;;;;16.02;6.32;;;;;;;26.17;45.94;101078.44;5035491;28;20053;-76
2022/06/23 07:23:54;;;;;;;14.77;5.60;;;;;;;26.92;42.75;101081.13;5035195;28;20025;-76
2022/06/23 07:26:32;;;;;;;13.75;6.10;;;;;;;26.09;45.00;101075.41;5035440;28;20147;-76
2022/06/23 07:29:17;;;;;;;19.25;6.47;;;;;;;27.33;43.45;101075.34;5034699;28;20037;-76
2022/06/23 07:31:55;;;;;;;12.07;6.07;;;;;;;27.51;41.58;101075.75;5035665;28;20022;-75
2022/06/23 07:34:21;;;;;;;12.85;7.10;;;;;;;26.96;43.02;101073.09;5034520;28;20038;-76
2022/06/23 07:36:53;;;;;;;19.83;6.35;;;;;;;28.48;39.60;101071.16;5034977;28;20060;-75
2022/06/23 07:39:23;;;;;;;15.05;6.47;;;;;;;29.20;38.32;101076.50;5035219;28;20105;-76
2022/06/23 07:42:00;;;;;;;12.75;6.40;;;;;;;29.47;37.60;101082.16;5035839;28;20025;-75
2022/06/23 07:44:37;;;;;;;;;;;;;;;28.49;38.63;101087.47;5035339;28;20022;-76
2022/06/23 07:47:02;;;;;;;10.02;6.57;;;;;;;28.04;40.04;101084.09;5035685;28;19921;-75
2022/06/23 07:49:30;;;;;;;14.52;6.43;;;;;;;27.75;41.89;101084.94;5035060;28;20057;-76
2022/06/23 07:51:55;;;;;;;16.58;6.45;;;;;;;29.02;38.39;101076.22;5036979;28;20048;-76
2022/06/23 07:54:22;;;;;;;13.35;6.38;;;;;;;29.42;37.31;101070.34;5038569;28;20085;-76
2022/06/23 07:56:49;;;;;;;20.75;6.40;;;;;;;29.65;37.22;101077.72;5038227;28;20078;-76
2022/06/23 07:59:18;;;;;;;13.45;6.60;;;;;;;30.01;36.36;101073.44;5038009;28;20075;-76
2022/06/23 08:01:51;;;;;;;11.48;6.40;;;;;;;30.01;35.97;101067.91;5038729;28;20302;-76
2022/06/23 08:04:54;;;;;;;14.27;6.53;;;;;;;29.92;36.36;101074.16;5038231;28;20026;-76
2022/06/23 08:07:20;;;;;;;12.90;6.47;;;;;;;29.72;35.90;101074.53;5039069;28;20088;-76
2022/06/23 08:09:52;;;;;;;11.48;5.90;;;;;;;30.16;35.95;101070.38;5038072;28;20057;-75
2022/06/23 08:18:39;;;;;;;16.70;6.63;;;;;;;30.40;35.61;101065.44;5028390;28;20045;-76
2022/06/23 08:21:21;;;;;;;14.25;6.88;;;;;;;30.44;35.30;101062.03;5038020;28;20094;-76
2022/06/23 08:23:55;;;;;;;13.02;5.70;;;;;;;31.67;33.99;101060.78;5038941;28;20013;-76
2022/06/23 08:26:21;;;;;;;11.82;5.78;;;;;;;32.41;32.57;101055.66;5038468;28;20041;-75
2022/06/23 08:28:49;;;;;;;18.52;6.18;;;;;;;31.82;33.09;101051.19;5038435;28;20081;-76
2022/06/23 08:31:14;;;;;;;13.20;5.80;;;;;;;31.85;33.37;101056.13;5038079;28;20018;-76
2022/06/23 08:33:40;;;;;;;14.60;6.93;;;;;;;31.94;33.14;101053.44;5037220;28;20030;-76
2022/06/23 08:36:15;;;;;;;14.13;6.50;;;;;;;32.28;32.69;101061.06;5038064;28;20022;-76
2022/06/23 08:38:45;;;;;;;13.80;6.78;;;;;;;32.58;32.01;101045.41;5038205;28;20014;-76
2022/06/23 08:41:26;;;;;;;13.75;6.57;;;;;;;31.99;32.35;101047.69;5037927;28;20024;-75
2022/06/23 08:44:12;;;;;;;14.48;7.93;;;;;;;30.84;34.72;101038.94;5033437;28;20034;-75
2022/06/23 08:46:41;;;;;;;15.82;6.95;;;;;;;30.58;35.71;101043.41;5037515;28;20014;-76
2022/06/23 08:49:22;;;;;;;16.58;8.57;;;;;;;30.66;35.74;101045.44;5037538;28;20033;-76
2022/06/23 08:51:59;;;;;;;21.83;7.88;;;;;;;30.47;36.22;101036.44;5038956;28;20032;-76
2022/06/23 08:54:32;;;;;;;15.93;8.95;;;;;;;28.32;40.47;101042.81;5037882;28;20040;-76
2022/06/23 08:57:08;;;;;;;18.58;8.90;;;;;;;28.78;40.29;101048.59;5037544;28;20037;-77
2022/06/23 08:59:51;;;;;;;21.52;8.52;;;;;;;29.01;39.91;101040.47;5036495;28;20033;-76
2022/06/23 09:02:37;;;;;;;16.25;7.90;;;;;;;29.33;39.92;101039.69;5031136;28;20038;-75
2022/06/23 09:05:18;;;;;;;17.93;7.47;;;;;;;29.44;40.17;101038.41;5036738;28;20051;-76
2022/06/23 09:08:02;;;;;;;17.60;8.70;;;;;;;29.71;39.23;101039.63;5038105;28;20684;-76
2022/06/23 09:10:46;;;;;;;14.90;8.02;;;;;;;30.02;38.55;101039.00;5037259;28;20034;-76
2022/06/23 09:13:36;;;;;;;16.67;8.60;;;;;;;31.25;36.90;101032.38;5038006;28;20018;-76
2022/06/23 09:16:16;;;;;;;14.48;7.38;;;;;;;31.66;36.61;101039.66;4991218;28;20101;-76
2022/06/23 09:19:12;;;;;;;12.95;7.78;;;;;;;32.02;35.39;101033.16;5038154;28;20046;-76
2022/06/23 09:21:51;;;;;;;9.95;6.57;;;;;;;32.63;35.32;101035.28;5037660;28;20033;-77
2022/06/23 09:24:46;;;;;;;14.75;8.15;;;;;;;31.55;36.36;101032.75;5037206;28;20018;-75
2022/06/23 09:27:43;;;;;;;15.63;8.35;;;;;;;31.33;38.13;101024.41;5036906;28;20029;-75
2022/06/23 09:30:17;;;;;;;15.50;7.85;;;;;;;31.97;36.98;101030.50;5037102;28;20022;-75
2022/06/23 09:32:56;;;;;;;20.08;9.00;;;;;;;31.85;36.14;101027.47;5038123;28;20033;-75
2022/06/23 09:35:59;;;;;;;25.08;9.48;;;;;;;32.16;35.64;101019.09;5037848;28;20069;-76
2022/06/23 09:38:31;;;;;;;17.67;8.60;;;;;;;32.25;35.70;101030.25;5037788;28;20026;-75
2022/06/23 09:41:04;;;;;;;16.80;9.73;;;;;;;31.47;37.42;101025.19;5036546;28;20052;-77
2022/06/23 09:43:52;;;;;;;14.93;8.00;;;;;;;31.04;38.76;101022.88;5036645;28;20029;-76
2022/06/23 09:46:28;;;;;;;14.57;8.00;;;;;;;31.86;36.99;101018.81;5036611;28;20029;-75
2022/06/23 09:49:18;;;;;;;19.08;7.57;;;;;;;32.04;37.51;101021.66;5038044;28;20036;-75
2022/06/23 09:51:57;;;;;;;16.48;8.07;;;;;;;32.42;35.96;101021.94;5037893;28;20042;-76
2022/06/23 09:54:29;;;;;;;16.70;9.20;;;;;;;30.59;39.62;101011.72;5037821;28;20022;-77
2022/06/23 09:56:54;;;;;;;19.10;9.10;;;;;;;30.52;39.72;101008.56;5036800;28;20032;-75
2022/06/23 09:59:44;;;;;;;17.80;9.83;;;;;;;30.69;39.99;101003.13;5037316;28;20022;-75
2022/06/23 10:02:22;;;;;;;17.10;6.50;;;;;;;32.30;37.63;101016.16;5037384;28;20040;-74
2022/06/23 10:05:07;;;;;;;21.08;9.07;;;;;;;32.53;36.23;101017.72;5037580;28;20053;-74
2022/06/23 10:07:46;;;;;;;22.52;9.02;;;;;;;32.64;36.77;101022.97;5036772;28;20091;-77
2022/06/23 10:10:35;;;;;;;23.52;8.55;;;;;;;33.05;36.66;101013.31;5036820;28;20198;-75
2022/06/23 10:13:14;;;;;;;13.75;6.43;;;;;;;33.85;35.11;101003.22;5037111;28;20014;-77
2022/06/23 10:16:15;;;;;;;12.32;7.20;;;;;;;33.57;34.98;101021.56;5035982;28;20022;-74
2022/06/23 10:19:05;;;;;;;21.02;7.03;;;;;;;33.27;36.53;101007.53;5018909;28;20038;-76
2022/06/23 10:21:53;;;;;;;22.58;8.02;;;;;;;32.97;36.64;101001.81;5035927;28;20024;-76
2022/06/23 10:24:40;;;;;;;29.70;7.22;;;;;;;32.97;36.61;101010.16;5033535;28;20053;-75
2022/06/23 10:27:22;;;;;;;17.05;7.70;;;;;;;34.03;34.71;101006.75;5037283;28;20109;-76
2022/06/23 10:30:12;;;;;;;14.02;7.00;;;;;;;33.62;35.49;101007.44;5036486;28;20083;-77
2022/06/23 10:32:55;;;;;;;22.52;7.25;;;;;;;33.90;34.71;100998.63;5036918;28;20041;-76
2022/06/23 10:35:58;;;;;;;20.95;8.30;;;;;;;33.32;35.79;101000.94;5036996;28;20072;-75
2022/06/23 10:38:38;;;;;;;18.80;6.93;;;;;;;33.49;36.14;100991.69;5036858;28;20022;-76
2022/06/23 10:41:12;;;;;;;20.48;6.43;;;;;;;34.09;34.81;100993.44;5036635;28;20057;-76
2022/06/23 10:44:04;;;;;;;20.10;5.90;;;;;;;32.61;36.44;100984.63;5037095;28;20029;-75
2022/06/23 10:46:49;;;;;;;20.45;6.75;;;;;;;31.90;39.08;100974.44;5035928;28;20026;-76
2022/06/23 10:49:29;;;;;;;23.90;6.55;;;;;;;31.62;39.37;100971.88;5035507;28;20018;-76
2022/06/23 10:52:14;;;;;;;17.90;6.38;;;;;;;32.00;39.68;100971.41;5036281;28;20165;-76
2022/06/23 10:54:57;;;;;;;15.13;6.40;;;;;;;32.38;38.40;100965.22;5036875;28;20110;-76
2022/06/23 10:57:38;;;;;;;21.98;6.68;;;;;;;32.94;37.29;100968.19;5036888;28;20022;-76
2022/06/23 11:00:19;;;;;;;15.55;6.47;;;;;;;32.97;37.27;100962.78;5037043;28;20030;-75
2022/06/23 11:02:53;;;;;;;24.52;6.40;;;;;;;32.03;39.31;100962.38;5035865;28;20088;-75
2022/06/23 11:05:24;;;;;;;20.33;6.47;;;;;;;32.70;38.05;100954.75;5036364;28;20124;-76
2022/06/23 11:08:08;;;;;;;18.90;5.97;;;;;;;33.23;37.31;100959.97;5036707;28;20077;-75
2022/06/23 11:10:43;;;;;;;20.02;7.10;;;;;;;32.49;38.22;100955.44;5036123;28;20093;-77
2022/06/23 11:13:27;;;;;;;25.15;8.32;;;;;;;32.45;39.01;100957.19;5035315;28;20010;-76
2022/06/23 11:16:14;;;;;;;22.25;7.15;;;;;;;33.36;37.25;100960.91;5036229;28;20042;-75
2022/06/23 11:18:49;;;;;;;18.13;6.60;;;;;;;32.31;38.74;100953.78;5035591;28;20025;-76
2022/06/23 11:21:36;;;;;;;16.25;6.60;;;;;;;31.16;40.30;100964.75;5036088;28;20022;-74
2022/06/23 11:24:21;;;;;;;16.48;6.28;;;;;;;31.28;40.10;100962.22;5035329;28;20025;-76
2022/06/23 11:27:16;;;;;;;18.23;7.07;;;;;;;31.40;39.78;100960.84;5034853;28;20038;-75
2022/06/23 11:29:53;;;;;;;15.97;7.10;;;;;;;31.52;39.60;100966.63;5035200;28;20094;-76
2022/06/23 11:32:43;;;;;;;25.85;9.18;;;;;;;31.29;40.13;100960.25;5035166;28;20014;-75
2022/06/23 11:35:23;;;;;;;28.55;11.55;;;;;;;30.79;41.02;100961.22;5035826;28;20089;-74
2022/06/23 11:38:00;;;;;;;22.90;9.35;;;;;;;30.97;40.96;100958.59;5035914;28;20030;-75
2022/06/23 11:40:39;;;;;;;26.23;9.45;;;;;;;30.75;41.71;100954.63;5035771;28;20041;-75
2022/06/23 11:44:01;;;;;;;28.80;8.20;;;;;;;30.83;41.38;100955.88;5034793;28;20029;-75
2022/06/23 11:46:32;;;;;;;19.05;9.18;;;;;;;30.83;42.01;100951.16;5014328;28;20060;-74
2022/06/23 11:49:33;;;;;;;20.52;8.75;;;;;;;31.24;41.13;100952.88;5014595;28;20131;-74
2022/06/23 11:52:20;;;;;;;28.02;10.50;;;;;;;30.87;40.93;100945.78;4997529;28;20035;-74
2022/06/23 11:55:14;;;;;;;20.67;9.70;;;;;;;30.48;42.56;100943.66;5035214;28;20199;-75
2022/06/23 11:57:56;;;;;;;20.63;7.78;;;;;;;30.94;41.28;100939.75;5031305;28;20097;-74
2022/06/23 12:00:42;;;;;;;24.00;9.05;;;;;;;31.78;38.79;100932.50;5035250;28;20017;-76
2022/06/23 12:03:38;;;;;;;18.55;8.15;;;;;;;32.29;38.69;100939.34;5035102;28;20042;-75
2022/06/23 12:06:46;;;;;;;23.73;10.10;;;;;;;31.99;39.80;100932.72;5035898;28;20041;-74
2022/06/23 12:09:18;;;;;;;20.42;7.95;;;;;;;31.82;40.10;100930.72;5035195;28;20028;-74
2022/06/23 12:11:43;;;;;;;21.05;10.70;;;;;;;31.10;40.61;100932.69;5036009;28;20108;-74
2022/06/23 12:14:09;;;;;;;16.00;8.90;;;;;;;30.99;41.75;100929.34;5035194;28;20053;-74
2022/06/23 12:17:07;;;;;;;25.02;8.45;;;;;;;31.04;42.34;100926.44;5034735;28;20026;-75